Flight Track Log - Related Links

Times and Time Zones

All times are in EST time to prevent confusion due to time zone crossing. See the CNS794 flight status page for this flight to view local times or setup timezone preferences in your user account.

Time Position Orientation Groundspeed Altitude Reporting Facility
EST Latitude Longitude Course Direction KTS MPH feet Rate Location/Type
Wed 08:23:54 AM 42.2000 -71.1833 200° South 90 104 1,200  Level KA90
Wed 08:24:54 AM 42.1667 -71.2000 200° South 200 230 2,100 1,000 Climbing KA90
Wed 08:25:48 AM 42.1167 -71.1667 154° Southeast 226 260 3,100 626 Climbing KA90
Wed 08:26:49 AM 42.0833 -71.0833 118° Southeast 242 278 3,300 744 Climbing KA90
Wed 08:27:49 AM 42.0500 -71.0167 124° Southeast 226 260 4,600 900 Climbing KA90
Wed 08:28:49 AM 42.0167 -70.9500 124° Southeast 234 269 5,100 250 Climbing KA90
Wed 08:29:49 AM 41.9667 -70.8667 129° Southeast 266 306 5,100  Level KA90
Wed 08:30:49 AM 41.9333 -70.7833 118° Southeast 270 311 5,100  Level KA90
Wed 08:31:55 AM 41.8833 -70.6833 124° Southeast 275 316 5,100  Level KA90
Wed 08:32:55 AM 41.8500 -70.6000 118° Southeast 271 312 5,100 -200 Level KA90
Wed 08:33:55 AM 41.8000 -70.5167 129° Southeast 268 308 4,700 -600 Descending KA90
Wed 08:34:55 AM 41.7500 -70.4500 135° Southeast 267 307 3,900 -800 Descending KA90
Wed 08:35:55 AM 41.7000 -70.4000 143° Southeast 213 245 3,100 -400 Descending KA90
Wed 08:36:55 AM 41.6500 -70.3667 154° Southeast 184 212 3,100 -50 Level KA90
Wed 08:37:55 AM 41.6167 -70.3167 132° Southeast 177 204 3,000 -200 Descending KA90
Wed 08:38:55 AM 41.6000 -70.2667 114° Southeast 163 188 2,700 -650 Descending KA90
Wed 08:39:55 AM 41.6333 -70.2500 20° North 112 129 1,700 -1,041 Descending KA90
Wed 08:40:56 AM 41.6500 -70.2667 323° Northwest 66 76 600 -744 Descending KA90
Wed 08:41:56 AM 41.6667 -70.2833 323° Northwest 62 71 200 -400 Descending KA90
Wed 08:44:00 AM 41.6693 -70.2804 90° East  Level Estimated
Wed 08:51:00 AM 41.6693 -70.2804 90° East  Level Estimated
Wed 08:52:00 AM 41.6693 -70.2804 90° East  Level Estimated

Login

Don't have an account? Register now (free) for customized features, flight alerts, and more!